Tyronza, AR (72386)

4:41 PM CST en Febrero 27, 2015 (GMT -0600)
West Memphis Municipal | Change Station
CLOSE
Current Station
Aeropuerto
Location: West Memphis,
Altura: 213 ft
Estaciones meteorológicas cercanas

Alt 213 ft 35.14 °N, 90.23 °W | Updated 48 minutes ago

Nublado
Nublado
29 ° F
Sensación térmica 19 ° F
N
12
Viento Variable Viento desde Norte

Hoy
Alta -- | Baja -- ° F
--% Posibilidad de precipitaciones
Ayer
Alta -- | Baja -- ° F
Precip. -- pul
6:34 AM 5:54 PM
Gibosa creciente, 72% visible
Presión 30.56 pul
Visibilidad 10.0 Millas
Nubes Nubes dispersas 3900 ft
Vientos helados 19 ° F
Punto de rocío 20 ° F
Humedad 69%
Precipitaciones 0.00 pul
Espesor de la nieve No disponible.
UV 1 de una escala de 12
Polen 4.00 de una escala de 12
Calidad del aire No disponible.
Flu Activity No disponible.
METAR KAWM 272153Z AUTO 35010KT 10SM SCT039 M02/M07 A3054 RMK AO2 SLP347 T10171067

More Conditions Fewer Conditions

Presión 30.56 pul
Visibilidad 10.0 Millas
Nubes Nubes dispersas 3900 ft
Vientos helados 19 ° F
Punto de rocío 20 ° F
Humedad 69%
Precipitaciones 0.00 pul
Espesor de la nieve No disponible.
UV 1 de una escala de 12
Polen 4.00 de una escala de 12
Calidad del aire No disponible.
Flu Activity No disponible.
METAR KAWM 272153Z AUTO 35010KT 10SM SCT039 M02/M07 A3054 RMK AO2 SLP347 T10171067

More Conditions Fewer Conditions

10-Day Weather Forecast

Almanac

Astronomía

Feb. 27, 2015 Salida Puesta
Hora real
Crepúsculo civil
Crepúsculo náutico
Crepúsculo astronómico
Luna
Horas de luz
Horas de luz
Tomorrow will be .
, % of the Moon is Illuminated

Extremos de hoy

Máximos del estado Bajos del estado

Community

WunderPhotos

Upload Photos

1,800,862 ¡fotos cargadas!

WunderBlogs® & News

Nearby

Calidad del aire

  Calidad del aire Índice AQ Contaminante
Not available.

Grosos de nieve

Estación Profundido Altura

Actividad de terremotos

Ciudad Distance Mag. Tiempo y dato
Magnitud mínima muestra es 2,5.

Temperaturas de aguas costeras

Lugar Temperatura

Estaciones meteorológicas cercanas